createdAt,value
2018-03-28T00:00:38.560Z,81.02
2018-03-28T00:01:38.635Z,81.25
2018-03-28T00:02:38.340Z,81.87
2018-03-28T00:03:38.608Z,81.3
2018-03-28T00:04:38.631Z,80.96
2018-03-28T00:05:38.651Z,80.68
2018-03-28T00:06:38.656Z,81.21
2018-03-28T00:07:38.418Z,81.3
2018-03-28T00:08:38.737Z,82.07
2018-03-28T00:09:38.703Z,81.4
2018-03-28T00:10:38.469Z,82.45
2018-03-28T00:11:38.736Z,82.45
2018-03-28T00:12:38.751Z,81.97
2018-03-28T00:13:38.512Z,82.45
2018-03-28T00:14:38.527Z,83.2
2018-03-28T00:15:38.543Z,82.45
2018-03-28T00:16:38.814Z,83.11
2018-03-28T00:17:38.583Z,83.39
2018-03-28T00:18:38.846Z,83.87
2018-03-28T00:19:38.860Z,82.92
2018-03-28T00:20:38.878Z,83.3
2018-03-28T00:21:38.896Z,83.01
2018-03-28T00:22:38.906Z,83.11
2018-03-28T00:23:38.720Z,83.36
2018-03-28T00:24:38.951Z,83.68
2018-03-28T00:25:38.953Z,83.97
2018-03-28T00:26:38.971Z,83.59
2018-03-28T00:27:39.000Z,83.97
2018-03-28T00:28:38.740Z,84.72
2018-03-28T00:29:38.756Z,83.87
2018-03-28T00:30:39.036Z,83.49
2018-03-28T00:31:38.794Z,83.49
2018-03-28T00:32:39.066Z,84.72
2018-03-28T00:33:39.081Z,84.53
2018-03-28T00:34:38.841Z,84.44
2018-03-28T00:35:39.116Z,84.25
2018-03-28T00:36:39.125Z,84.34
2018-03-28T00:37:39.141Z,84.3
2018-03-28T00:38:39.207Z,84.53
2018-03-28T00:39:38.930Z,84.63
2018-03-28T00:40:39.188Z,85.3
2018-03-28T00:41:39.202Z,84.82
2018-03-28T00:42:39.215Z,84.72
2018-03-28T00:43:39.280Z,84.3
2018-03-28T00:44:38.993Z,84.68
2018-03-28T00:45:39.266Z,84.4
2018-03-28T00:46:39.292Z,84.49
2018-03-28T00:47:39.301Z,85.06
2018-03-28T00:48:39.313Z,85.25
2018-03-28T00:49:39.354Z,84.3
2018-03-28T00:50:39.092Z,85.25
2018-03-28T00:51:39.367Z,85.16
2018-03-28T00:52:39.379Z,85.2
2018-03-28T00:53:39.138Z,84.53
2018-03-28T00:54:39.151Z,84.06
2018-03-28T00:55:39.423Z,84.78
2018-03-28T00:56:39.434Z,84.49
2018-03-28T00:57:39.453Z,84.3
2018-03-28T00:58:39.517Z,84.21
2018-03-28T00:59:39.230Z,84.78
2018-03-28T01:00:39.243Z,84.59
2018-03-28T01:01:39.537Z,85.25
2018-03-28T01:02:39.277Z,85.44
2018-03-28T01:03:39.544Z,84.4
2018-03-28T01:04:39.563Z,85.06
2018-03-28T01:05:39.578Z,85.53
2018-03-28T01:06:39.594Z,85.77
2018-03-28T01:07:39.357Z,86.34
2018-03-28T01:08:39.626Z,85.63
2018-03-28T01:09:39.638Z,86.77
2018-03-28T01:10:39.400Z,86.11
2018-03-28T01:11:39.673Z,87.43
2018-03-28T01:12:39.432Z,87.05
2018-03-28T01:13:39.775Z,87.34
2018-03-28T01:14:39.717Z,87.72
2018-03-28T01:15:39.478Z,86.58
2018-03-28T01:16:39.744Z,86.96
2018-03-28T01:17:39.509Z,87.62
2018-03-28T01:18:39.521Z,87.34
2018-03-28T01:19:39.791Z,87.53
2018-03-28T01:20:39.807Z,87.24
2018-03-28T01:21:39.823Z,87.58
2018-03-28T01:22:39.838Z,87.3
2018-03-28T01:23:39.853Z,87.77
2018-03-28T01:24:39.925Z,87.11
2018-03-28T01:25:39.881Z,88.24
2018-03-28T01:26:39.897Z,88.24
2018-03-28T01:27:39.912Z,87.96
2018-03-28T01:28:39.929Z,87.87
2018-03-28T01:29:39.686Z,87.87
2018-03-28T01:30:39.956Z,88.15
2018-03-28T01:31:39.976Z,88.15
2018-03-28T01:32:39.988Z,88.01
2018-03-28T01:33:40.001Z,87.39
2018-03-28T01:34:40.017Z,87.01
2018-03-28T01:35:39.779Z,87.01
2018-03-28T01:36:40.052Z,87.39
2018-03-28T01:37:40.062Z,88.24
2018-03-28T01:38:40.075Z,87.68
2018-03-28T01:39:40.143Z,87.91
2018-03-28T01:40:40.120Z,88.01
2018-03-28T01:41:39.868Z,88.29
2018-03-28T01:42:40.136Z,86.68
2018-03-28T01:43:40.148Z,88.2
2018-03-28T01:44:40.164Z,87.05
2018-03-28T01:45:40.180Z,87.62
2018-03-28T01:46:40.195Z,87.62
2018-03-28T01:47:40.213Z,86.87
2018-03-28T01:48:40.227Z,87.24
2018-03-28T01:49:40.246Z,87.15
2018-03-28T01:50:40.261Z,87.05
2018-03-28T01:51:40.272Z,87.05
2018-03-28T01:52:40.302Z,87.62
2018-03-28T01:53:40.040Z,87.15
2018-03-28T01:54:40.104Z,87.53
2018-03-28T01:55:40.319Z,87.19
2018-03-28T01:56:40.340Z,86.91
2018-03-28T01:57:40.354Z,86.15
2018-03-28T01:58:40.375Z,85.82
2018-03-28T01:59:40.488Z,86.01
2018-03-28T02:00:40.398Z,86.3
2018-03-28T02:01:40.163Z,86.39
2018-03-28T02:02:40.425Z,86.3
2018-03-28T02:03:40.446Z,86.87
2018-03-28T02:04:40.461Z,86.2
2018-03-28T02:05:40.473Z,87.15
2018-03-28T02:06:40.237Z,86.58
2018-03-28T02:07:40.503Z,86.77
2018-03-28T02:08:40.517Z,86.96
2018-03-28T02:09:40.596Z,86.58
2018-03-28T02:10:40.562Z,86.58
2018-03-28T02:11:40.576Z,86.58
2018-03-28T02:12:40.590Z,86.49
2018-03-28T02:13:40.611Z,86.58
2018-03-28T02:14:40.622Z,86.77
2018-03-28T02:15:40.384Z,87.53
2018-03-28T02:16:40.653Z,86.68
2018-03-28T02:17:40.767Z,87.24
2018-03-28T02:18:40.689Z,86.77
2018-03-28T02:19:40.698Z,86.77
2018-03-28T02:20:40.716Z,86.11
2018-03-28T02:21:40.739Z,86.87
2018-03-28T02:22:40.745Z,86.58
2018-03-28T02:23:40.760Z,86.39
2018-03-28T02:24:40.569Z,86.77
2018-03-28T02:25:40.791Z,87.15
2018-03-28T02:26:40.807Z,86.77
2018-03-28T02:27:40.822Z,86.77
2018-03-28T02:28:40.837Z,86.77
2018-03-28T02:29:40.598Z,86.96
2018-03-28T02:30:40.615Z,86.68
2018-03-28T02:31:40.629Z,86.96
2018-03-28T02:32:40.902Z,86.58
2018-03-28T02:33:40.917Z,86.87
2018-03-28T02:34:40.927Z,86.68
2018-03-28T02:35:40.788Z,86.77
2018-03-28T02:36:40.962Z,86.01
2018-03-28T02:37:40.976Z,86.49
2018-03-28T02:38:40.734Z,86.68
2018-03-28T02:39:41.005Z,86.96
2018-03-28T02:40:43.422Z,86.87
2018-03-28T02:41:40.780Z,86.77
2018-03-28T02:42:40.797Z,86.77
2018-03-28T02:43:41.067Z,87.05
2018-03-28T02:44:40.839Z,87.05
2018-03-28T02:45:41.105Z,86.87
2018-03-28T02:46:41.120Z,86.96
2018-03-28T02:47:41.130Z,87.24
2018-03-28T02:48:41.143Z,86.3
2018-03-28T02:49:41.156Z,86.87
2018-03-28T02:50:41.181Z,86.49
2018-03-28T02:51:41.195Z,86.77
2018-03-28T02:52:40.960Z,86.87
2018-03-28T02:53:41.235Z,86.96
2018-03-28T02:54:41.232Z,86.77
2018-03-28T02:55:41.308Z,86.77
2018-03-28T02:56:41.269Z,86.68
2018-03-28T02:57:41.030Z,86.87
2018-03-28T02:58:41.042Z,87.05
2018-03-28T02:59:41.320Z,86.68
2018-03-28T03:00:41.382Z,86.87
2018-03-28T03:01:41.345Z,86.87
2018-03-28T03:02:41.370Z,86.96
2018-03-28T03:03:41.379Z,86.87
2018-03-28T03:04:41.394Z,86.49
2018-03-28T03:05:41.167Z,86.91
2018-03-28T03:06:41.427Z,86.49
2018-03-28T03:07:41.180Z,86.77
2018-03-28T03:08:41.451Z,86.77
2018-03-28T03:09:41.465Z,87.15
2018-03-28T03:10:41.481Z,86.58
2018-03-28T03:11:41.493Z,86.87
2018-03-28T03:12:41.510Z,87.01
2018-03-28T03:13:41.593Z,87.05
2018-03-28T03:14:41.543Z,87.29
2018-03-28T03:15:41.609Z,87.1
2018-03-28T03:16:41.572Z,86.72
2018-03-28T03:17:41.588Z,87.01
2018-03-28T03:18:41.349Z,86.63
2018-03-28T03:19:41.363Z,87.01
2018-03-28T03:20:41.638Z,87.38
2018-03-28T03:21:41.653Z,86.72
2018-03-28T03:22:41.669Z,86.91
2018-03-28T03:23:41.676Z,86.63
2018-03-28T03:24:41.693Z,87.01
2018-03-28T03:25:41.709Z,87.01
2018-03-28T03:26:41.472Z,87.67
2018-03-28T03:27:41.741Z,87.1
2018-03-28T03:28:41.759Z,87.19
2018-03-28T03:29:41.773Z,87.48
2018-03-28T03:30:41.535Z,88.24
2018-03-28T03:31:41.557Z,88.05
2018-03-28T03:32:41.568Z,88.15
2018-03-28T03:33:41.832Z,87.95
2018-03-28T03:34:41.863Z,88.2
2018-03-28T03:35:41.864Z,88.01
2018-03-28T03:36:41.882Z,87.95
2018-03-28T03:37:41.895Z,88.2
2018-03-28T03:38:41.911Z,88.48
2018-03-28T03:39:41.923Z,89.14
2018-03-28T03:40:41.939Z,88.86
2018-03-28T03:41:41.956Z,88.95
2018-03-28T03:42:41.715Z,89.09
2018-03-28T03:43:41.986Z,89.28
2018-03-28T03:44:42.004Z,89.19
2018-03-28T03:45:42.012Z,88.9
2018-03-28T03:46:41.777Z,89.05
2018-03-28T03:47:41.792Z,88.95
2018-03-28T03:48:42.062Z,89.33
2018-03-28T03:49:41.823Z,89.09
2018-03-28T03:50:42.091Z,89.38
2018-03-28T03:51:42.105Z,89.43
2018-03-28T03:52:41.867Z,89.33
2018-03-28T03:53:42.135Z,90
2018-03-28T03:54:42.149Z,90
2018-03-28T03:55:42.165Z,90.05
2018-03-28T03:56:42.187Z,89.38
2018-03-28T03:57:42.194Z,89.33
2018-03-28T03:58:42.208Z,89.33
2018-03-28T03:59:41.974Z,89.33
2018-03-28T04:00:41.984Z,90.05
2018-03-28T04:01:42.003Z,89.38
2018-03-28T04:02:42.273Z,89.14
2018-03-28T04:03:42.286Z,89.62
2018-03-28T04:04:42.301Z,89.9
2018-03-28T04:05:42.067Z,89.72
2018-03-28T04:06:42.075Z,89.67
2018-03-28T04:07:42.348Z,89.72
2018-03-28T04:08:42.362Z,89.53
2018-03-28T04:09:42.121Z,89.9
2018-03-28T04:10:42.393Z,89.72
2018-03-28T04:11:42.410Z,89.43
2018-03-28T04:12:42.426Z,89.72
2018-03-28T04:13:42.180Z,89.67
2018-03-28T04:14:42.453Z,89.76
2018-03-28T04:15:42.209Z,89.76
2018-03-28T04:16:42.534Z,89.76
2018-03-28T04:17:42.492Z,89.86
2018-03-28T04:18:42.506Z,89.67
2018-03-28T04:19:42.522Z,89.72
2018-03-28T04:20:42.283Z,89.57
2018-03-28T04:21:44.102Z,89.76
2018-03-28T04:22:42.567Z,89.86
2018-03-28T04:23:42.329Z,89.57
2018-03-28T04:24:42.595Z,89.19
2018-03-28T04:25:42.624Z,89.81
2018-03-28T04:26:42.372Z,89.76
2018-03-28T04:27:42.629Z,90.05
2018-03-28T04:28:42.658Z,89.86
2018-03-28T04:29:42.674Z,89.72
2018-03-28T04:30:42.688Z,89.47
2018-03-28T04:31:42.751Z,90.05
2018-03-28T04:32:42.552Z,89.76
2018-03-28T04:33:42.481Z,89.57
2018-03-28T04:34:42.757Z,89.67
2018-03-28T04:35:42.766Z,89.76
2018-03-28T04:36:42.845Z,89.95
2018-03-28T04:37:42.796Z,90.14
2018-03-28T04:38:42.809Z,89.76
2018-03-28T04:39:42.820Z,89.76
2018-03-28T04:40:42.837Z,89.76
2018-03-28T04:41:42.901Z,89.57
2018-03-28T04:42:42.866Z,89.67
2018-03-28T04:43:42.641Z,89.76
2018-03-28T04:44:42.905Z,89.76
2018-03-28T04:45:42.913Z,89.76
2018-03-28T04:46:42.930Z,89.57
2018-03-28T04:47:42.953Z,89.95
2018-03-28T04:48:42.965Z,89.38
2018-03-28T04:49:42.980Z,89.86
2018-03-28T04:50:42.736Z,90.05
2018-03-28T04:51:43.009Z,89.38
2018-03-28T04:52:43.022Z,89.38
2018-03-28T04:53:43.033Z,89.76
2018-03-28T04:54:43.052Z,89.47
2018-03-28T04:55:42.882Z,89.57
2018-03-28T04:56:43.130Z,89.38
2018-03-28T04:57:42.838Z,89.19
2018-03-28T04:58:43.110Z,89.28
2018-03-28T04:59:42.870Z,89.19
2018-03-28T05:00:43.148Z,89.09
2018-03-28T05:01:43.154Z,89.28
2018-03-28T05:02:42.919Z,88.71
2018-03-28T05:03:43.194Z,89.28
2018-03-28T05:04:43.207Z,89.38
2018-03-28T05:05:42.967Z,89.47
2018-03-28T05:06:43.237Z,89.95
2018-03-28T05:07:43.253Z,89
2018-03-28T05:08:43.014Z,89.38
2018-03-28T05:09:43.053Z,89.19
2018-03-28T05:10:43.303Z,89.38
2018-03-28T05:11:43.320Z,89.19
2018-03-28T05:12:43.075Z,89.28
2018-03-28T05:13:43.388Z,89.38
2018-03-28T05:14:43.343Z,89.19
2018-03-28T05:15:43.495Z,89.38
2018-03-28T05:16:43.377Z,89.47
2018-03-28T05:17:43.405Z,89.57
2018-03-28T05:18:43.421Z,89.76
2018-03-28T05:19:43.180Z,89
2018-03-28T05:20:43.449Z,89.28
2018-03-28T05:21:43.214Z,89.19
2018-03-28T05:22:43.599Z,89.38
2018-03-28T05:23:43.246Z,89.19
2018-03-28T05:24:43.520Z,88.71
2018-03-28T05:25:43.532Z,88.9
2018-03-28T05:26:43.547Z,89.38
2018-03-28T05:27:43.561Z,89.19
2018-03-28T05:28:43.321Z,88.71
2018-03-28T05:29:43.591Z,88.81
2018-03-28T05:30:43.350Z,89.19
2018-03-28T05:31:43.618Z,89
2018-03-28T05:32:43.639Z,88.9
2018-03-28T05:33:43.657Z,88.85
2018-03-28T05:34:43.665Z,88.57
2018-03-28T05:35:43.686Z,89
2018-03-28T05:36:43.698Z,88.71
2018-03-28T05:37:43.762Z,89
2018-03-28T05:38:43.730Z,89
2018-03-28T05:39:43.748Z,89.09
2018-03-28T05:40:43.761Z,89.23
2018-03-28T05:41:43.783Z,89.14
2018-03-28T05:42:43.790Z,88.57
2018-03-28T05:43:43.812Z,88.85
2018-03-28T05:44:43.579Z,88.95
2018-03-28T05:45:43.587Z,89.14
2018-03-28T05:46:43.605Z,89.04
2018-03-28T05:47:43.619Z,88.57
2018-03-28T05:48:43.633Z,88.57
2018-03-28T05:49:43.945Z,88.57
2018-03-28T05:50:43.665Z,88.57
2018-03-28T05:51:43.936Z,88.85
2018-03-28T05:52:43.698Z,88.28
2018-03-28T05:53:43.970Z,88.47
2018-03-28T05:54:43.989Z,88.57
2018-03-28T05:55:43.996Z,88
2018-03-28T05:56:43.761Z,88.28
2018-03-28T05:57:43.777Z,88.38
2018-03-28T05:58:44.045Z,88.67
2018-03-28T05:59:44.062Z,88.47
2018-03-28T06:00:44.086Z,88.57
2018-03-28T06:01:44.097Z,88.85
2018-03-28T06:02:43.855Z,88.57
2018-03-28T06:03:44.122Z,88.57
2018-03-28T06:04:44.147Z,88.57
2018-03-28T06:05:44.157Z,88.38
2018-03-28T06:06:44.171Z,88.47
2018-03-28T06:07:44.187Z,88.28
2018-03-28T06:08:44.209Z,88.67
2018-03-28T06:09:43.968Z,88.38
2018-03-28T06:10:44.236Z,88
2018-03-28T06:11:43.996Z,88.47
2018-03-28T06:12:44.267Z,88.47
2018-03-28T06:13:44.303Z,88.47
2018-03-28T06:14:44.045Z,88.47
2018-03-28T06:15:44.105Z,88.38
2018-03-28T06:16:44.329Z,88.52
2018-03-28T06:17:44.092Z,88.13
2018-03-28T06:18:44.109Z,88.61
2018-03-28T06:19:44.124Z,88.13
2018-03-28T06:20:44.396Z,88.23
2018-03-28T06:21:44.155Z,88.33
2018-03-28T06:22:44.434Z,87.85
2018-03-28T06:23:44.451Z,88.13
2018-03-28T06:24:44.205Z,88.04
2018-03-28T06:25:44.505Z,87.85
2018-03-28T06:26:44.483Z,88.04
2018-03-28T06:27:44.506Z,88.13
2018-03-28T06:28:44.266Z,88.13
2018-03-28T06:29:44.540Z,87.66
2018-03-28T06:30:44.563Z,87.95
2018-03-28T06:31:44.317Z,87.95
2018-03-28T06:32:44.332Z,88.23
2018-03-28T06:33:44.609Z,88.04
2018-03-28T06:34:44.619Z,88.42
2018-03-28T06:35:44.635Z,87.95
2018-03-28T06:36:44.398Z,87.57
2018-03-28T06:37:44.673Z,87.47
2018-03-28T06:38:44.431Z,87.38
2018-03-28T06:39:44.705Z,87.76
2018-03-28T06:40:44.718Z,87.38
2018-03-28T06:41:44.478Z,87.57
2018-03-28T06:42:44.749Z,87.9
2018-03-28T06:43:44.512Z,87.61
2018-03-28T06:44:44.784Z,87.61
2018-03-28T06:45:44.796Z,87.61
2018-03-28T06:46:44.814Z,87.52
2018-03-28T06:47:44.578Z,86.94
2018-03-28T06:48:44.899Z,87.23
2018-03-28T06:49:44.617Z,87.52
2018-03-28T06:50:44.885Z,87.61
2018-03-28T06:51:44.647Z,87.23
2018-03-28T06:52:44.661Z,87.42
2018-03-28T06:53:44.678Z,87.13
2018-03-28T06:54:44.949Z,87.61
2018-03-28T06:55:44.965Z,87.13
2018-03-28T06:56:44.976Z,86.94
2018-03-28T06:57:44.739Z,86.76
2018-03-28T06:58:45.017Z,86.94
2018-03-28T06:59:44.828Z,87.04
2018-03-28T07:00:45.050Z,87.23
2018-03-28T07:01:45.069Z,86.66
2018-03-28T07:02:45.082Z,86.76
2018-03-28T07:03:45.100Z,86.38
2018-03-28T07:04:44.863Z,87.04
2018-03-28T07:05:44.883Z,86.42
2018-03-28T07:06:45.155Z,85.75
2018-03-28T07:07:45.167Z,86.61
2018-03-28T07:08:45.184Z,85.28
2018-03-28T07:09:45.225Z,85.47
2018-03-28T07:10:44.961Z,85.94
2018-03-28T07:11:44.978Z,85.66
2018-03-28T07:12:45.258Z,85.47
2018-03-28T07:13:45.273Z,85.66
2018-03-28T07:14:45.293Z,85.37
2018-03-28T07:15:45.314Z,85.47
2018-03-28T07:16:45.324Z,85.47
2018-03-28T07:17:45.339Z,85.56
2018-03-28T07:18:45.360Z,85.75
2018-03-28T07:19:45.376Z,85.66
2018-03-28T07:20:45.501Z,84.89
2018-03-28T07:21:45.414Z,84.7
2018-03-28T07:22:45.432Z,84.8
2018-03-28T07:23:45.191Z,84.84
2018-03-28T07:24:45.259Z,85.7
2018-03-28T07:25:45.484Z,83.89
2018-03-28T07:26:45.499Z,84.36
2018-03-28T07:27:45.552Z,84.94
2018-03-28T07:28:45.281Z,84.33
2018-03-28T07:29:45.551Z,84.23
2018-03-28T07:30:45.315Z,84.08
2018-03-28T07:31:45.588Z,84.56
2018-03-28T07:32:45.351Z,83.98
2018-03-28T07:33:45.370Z,83.61
2018-03-28T07:34:45.437Z,84.75
2018-03-28T07:35:45.668Z,84.61
2018-03-28T07:36:45.435Z,84.65
2018-03-28T07:37:45.711Z,84.42
2018-03-28T07:38:45.723Z,84.17
2018-03-28T07:39:45.727Z,84.08
2018-03-28T07:40:45.495Z,84.08
2018-03-28T07:41:45.764Z,83.8
2018-03-28T07:42:45.788Z,83.61
2018-03-28T07:43:45.805Z,83.61
2018-03-28T07:44:45.569Z,83.61
2018-03-28T07:45:45.586Z,83.74
2018-03-28T07:46:45.602Z,82.75
2018-03-28T07:47:45.880Z,83.32
2018-03-28T07:48:45.893Z,83.22
2018-03-28T07:49:45.714Z,83.36
2018-03-28T07:50:45.675Z,82.69
2018-03-28T07:51:45.698Z,82.79
2018-03-28T07:52:45.965Z,83.07
2018-03-28T07:53:45.992Z,82.98
2018-03-28T07:54:45.752Z,83.07
2018-03-28T07:55:46.023Z,83.07
2018-03-28T07:56:46.051Z,82.79
2018-03-28T07:57:46.058Z,82.79
2018-03-28T07:58:46.078Z,82.79
2018-03-28T07:59:45.844Z,82.69
2018-03-28T08:00:46.116Z,83.26
2018-03-28T08:01:46.154Z,82.6
2018-03-28T08:02:46.158Z,82.31
2018-03-28T08:03:46.169Z,81.93
2018-03-28T08:04:46.237Z,82.21
2018-03-28T08:05:46.206Z,82.5
2018-03-28T08:06:46.228Z,82.98
2018-03-28T08:07:46.252Z,82.5
2018-03-28T08:08:46.264Z,82.12
2018-03-28T08:09:46.281Z,82.79
2018-03-28T08:10:46.302Z,82.5
2018-03-28T08:11:46.071Z,81.93
2018-03-28T08:12:46.344Z,82.12
2018-03-28T08:13:46.363Z,82.03
2018-03-28T08:14:46.372Z,82.21
2018-03-28T08:15:46.392Z,82.31
2018-03-28T08:16:46.426Z,82.21
2018-03-28T08:17:46.430Z,82.03
2018-03-28T08:18:46.453Z,81.02
2018-03-28T08:19:46.517Z,81.68
2018-03-28T08:20:46.235Z,81.21
2018-03-28T08:21:46.253Z,81.3
2018-03-28T08:22:46.523Z,80.44
2018-03-28T08:23:46.549Z,80.92
2018-03-28T08:24:46.309Z,80.68
2018-03-28T08:25:46.353Z,79.44
2018-03-28T08:26:46.606Z,79.11
2018-03-28T08:27:46.624Z,79.68
2018-03-28T08:28:46.641Z,79.97
2018-03-28T08:29:46.662Z,79.4
2018-03-28T08:30:46.684Z,79.4
2018-03-28T08:31:46.711Z,79.59
2018-03-28T08:32:46.772Z,79.49
2018-03-28T08:33:46.750Z,79.49
2018-03-28T08:34:46.503Z,79.3
2018-03-28T08:35:46.783Z,79.4
2018-03-28T08:36:46.851Z,78.58
2018-03-28T08:37:46.562Z,79.4
2018-03-28T08:38:46.836Z,79.4
2018-03-28T08:39:46.857Z,79.4
2018-03-28T08:40:46.880Z,78.92
2018-03-28T08:41:46.637Z,78.25
2018-03-28T08:42:46.658Z,78.64
2018-03-28T08:43:46.934Z,79.21
2018-03-28T08:44:46.951Z,79.3
2018-03-28T08:45:46.972Z,78.25
2018-03-28T08:46:47.065Z,78.1
2018-03-28T08:47:47.010Z,78.01
2018-03-28T08:48:47.028Z,77.72
2018-03-28T08:49:47.050Z,77.72
2018-03-28T08:50:47.071Z,77.82
2018-03-28T08:51:47.240Z,77.53
2018-03-28T08:52:46.854Z,77.62
2018-03-28T08:53:47.133Z,76.86
2018-03-28T08:54:47.147Z,76.52
2018-03-28T08:55:47.168Z,76.42
2018-03-28T08:56:47.205Z,76.39
2018-03-28T08:57:47.213Z,76.33
2018-03-28T08:58:47.227Z,75.66
2018-03-28T08:59:47.246Z,76.33
2018-03-28T09:00:47.267Z,75.85
2018-03-28T09:01:47.036Z,75.28
2018-03-28T09:02:47.310Z,75.09
2018-03-28T09:03:47.326Z,75.47
2018-03-28T09:04:47.349Z,76.67
2018-03-28T09:05:47.367Z,77.06
2018-03-28T09:06:47.444Z,76.67
2018-03-28T09:07:47.408Z,76.77
2018-03-28T09:08:47.426Z,76.77
2018-03-28T09:09:47.446Z,76.71
2018-03-28T09:10:47.465Z,76.77
2018-03-28T09:11:47.486Z,76.81
2018-03-28T09:12:47.503Z,76.77
2018-03-28T09:13:47.524Z,76.57
2018-03-28T09:14:47.293Z,76.86
2018-03-28T09:15:47.567Z,75.28
2018-03-28T09:16:47.587Z,74.32
2018-03-28T09:17:47.605Z,74.61
2018-03-28T09:18:47.375Z,72.17
2018-03-28T09:19:47.645Z,71.21
2018-03-28T09:20:47.673Z,71.5
2018-03-28T09:21:47.486Z,70.92
2018-03-28T09:22:47.708Z,69.31
2018-03-28T09:23:47.729Z,67.68
2018-03-28T09:24:47.495Z,66.19
2018-03-28T09:25:47.775Z,66
2018-03-28T09:26:47.538Z,66.19
2018-03-28T09:27:47.811Z,64.85
2018-03-28T09:28:47.829Z,64.37
2018-03-28T09:29:47.853Z,63.7
2018-03-28T09:30:47.616Z,64.53
2018-03-28T09:31:47.892Z,65.01
2018-03-28T09:32:47.911Z,65.3
2018-03-28T09:33:47.938Z,65.96
2018-03-28T09:34:47.702Z,65.48
2018-03-28T09:35:47.981Z,66.44
2018-03-28T09:36:47.793Z,66.72
2018-03-28T09:37:48.026Z,66.35
2018-03-28T09:38:48.040Z,65.77
2018-03-28T09:39:48.070Z,65.96
2018-03-28T09:40:48.082Z,66.15
2018-03-28T09:41:48.251Z,65.87
2018-03-28T09:42:47.864Z,66.63
2018-03-28T09:43:48.137Z,65.87
2018-03-28T09:44:48.161Z,66.53
2018-03-28T09:45:47.926Z,65.77
2018-03-28T09:46:48.251Z,66.44
2018-03-28T09:47:47.969Z,67.11
2018-03-28T09:48:48.242Z,65.58
2018-03-28T09:49:48.007Z,65.87
2018-03-28T09:50:48.027Z,66.63
2018-03-28T09:51:48.306Z,67.3
2018-03-28T09:52:48.069Z,67.93
2018-03-28T09:53:48.352Z,67.36
2018-03-28T09:54:48.111Z,67.83
2018-03-28T09:55:48.387Z,66.41
2018-03-28T09:56:48.457Z,67.27
2018-03-28T09:57:48.168Z,68.03
2018-03-28T09:58:48.188Z,68.88
2018-03-28T09:59:48.213Z,68.41
2018-03-28T10:00:48.484Z,68.6
2018-03-28T10:01:48.253Z,69.17
2018-03-28T10:02:48.279Z,69.81
2018-03-28T10:03:48.293Z,70.57
2018-03-28T10:04:48.576Z,71.04
2018-03-28T10:05:48.586Z,71.62
2018-03-28T10:06:48.353Z,71.72
2018-03-28T10:07:48.380Z,71.81
2018-03-28T10:08:48.722Z,71.72
2018-03-28T10:09:48.669Z,71.72
2018-03-28T10:10:48.686Z,72.67
2018-03-28T10:11:48.453Z,72.96
2018-03-28T10:12:48.726Z,72.19
2018-03-28T10:13:48.491Z,72.86
2018-03-28T10:14:48.768Z,73.24
2018-03-28T10:15:48.790Z,72.48
2018-03-28T10:16:48.809Z,72.28
2018-03-28T10:17:48.827Z,72.32
2018-03-28T10:18:48.844Z,71.75
2018-03-28T10:19:48.870Z,72.13
2018-03-28T10:20:48.631Z,72.03
2018-03-28T10:21:48.907Z,71.66
2018-03-28T10:22:48.668Z,71.84
2018-03-28T10:23:48.942Z,71.56
2018-03-28T10:24:48.960Z,70.54
2018-03-28T10:25:48.981Z,70.98
2018-03-28T10:26:49.003Z,71.75
2018-03-28T10:27:49.022Z,71.66
2018-03-28T10:28:48.788Z,71.66
2018-03-28T10:29:49.178Z,71.94
2018-03-28T10:30:48.832Z,72.8
2018-03-28T10:31:49.108Z,73.75
2018-03-28T10:32:48.869Z,73.08
2018-03-28T10:33:49.141Z,73.28
2018-03-28T10:34:49.161Z,73.81
2018-03-28T10:35:49.176Z,74.29
2018-03-28T10:36:49.202Z,74.13
2018-03-28T10:37:48.961Z,73.28
2018-03-28T10:38:49.233Z,72.42
2018-03-28T10:39:49.253Z,72.51
2018-03-28T10:40:49.274Z,73.37
2018-03-28T10:41:49.041Z,73.56
2018-03-28T10:42:49.061Z,73.37
2018-03-28T10:43:49.085Z,73.18
2018-03-28T10:44:49.361Z,72.99
2018-03-28T10:45:49.379Z,73.32
2018-03-28T10:46:49.144Z,73.56
2018-03-28T10:47:49.165Z,73.98
2018-03-28T10:48:49.451Z,73.03
2018-03-28T10:49:49.205Z,73.03
2018-03-28T10:50:49.474Z,72.64
2018-03-28T10:51:49.512Z,73.03
2018-03-28T10:52:49.540Z,73.12
2018-03-28T10:53:49.543Z,74.13
2018-03-28T10:54:49.305Z,74.61
2018-03-28T10:55:49.329Z,74.99
2018-03-28T10:56:49.601Z,75.09
2018-03-28T10:57:49.368Z,75.72
2018-03-28T10:58:49.642Z,75.28
2018-03-28T10:59:49.657Z,75.09
2018-03-28T11:00:49.424Z,75.18
2018-03-28T11:01:49.701Z,74.8
2018-03-28T11:02:49.468Z,75.28
2018-03-28T11:03:49.746Z,75.18
2018-03-28T11:04:49.506Z,75.28
2018-03-28T11:05:49.776Z,74.71
2018-03-28T11:06:49.544Z,74.52
2018-03-28T11:07:49.857Z,74.23
2018-03-28T11:08:49.839Z,74.8
2018-03-28T11:09:49.867Z,74.9
2018-03-28T11:10:49.625Z,75.85
2018-03-28T11:11:49.903Z,74.8
2018-03-28T11:12:49.922Z,74.99
2018-03-28T11:13:49.939Z,74.42
2018-03-28T11:14:49.960Z,73.98
2018-03-28T11:15:49.984Z,74.17
2018-03-28T11:16:49.745Z,74.27
2018-03-28T11:17:50.018Z,74.55
2018-03-28T11:18:50.043Z,73.88
2018-03-28T11:19:49.806Z,73.79
2018-03-28T11:20:49.828Z,74.17
2018-03-28T11:21:50.103Z,73.03
2018-03-28T11:22:50.125Z,72.45
2018-03-28T11:23:50.145Z,72.3
2018-03-28T11:24:50.163Z,71.92
2018-03-28T11:25:50.213Z,72.83
2018-03-28T11:26:50.203Z,73.03
2018-03-28T11:27:50.283Z,73.79
2018-03-28T11:28:50.244Z,74.27
2018-03-28T11:29:50.267Z,74.99
2018-03-28T11:30:50.032Z,74.61
2018-03-28T11:31:50.306Z,74.61
2018-03-28T11:32:50.072Z,74.93
2018-03-28T11:33:50.348Z,75.42
2018-03-28T11:34:50.370Z,74.37
2018-03-28T11:35:50.384Z,74.55
2018-03-28T11:36:50.408Z,74.46
2018-03-28T11:37:50.528Z,74.65
2018-03-28T11:38:50.197Z,74.46
2018-03-28T11:39:50.215Z,75.03
2018-03-28T11:40:50.491Z,75.95
2018-03-28T11:41:50.258Z,75.37
2018-03-28T11:42:50.379Z,74.27
2018-03-28T11:43:50.297Z,73.69
2018-03-28T11:44:50.318Z,73.22
2018-03-28T11:45:50.617Z,73.22
2018-03-28T11:46:50.614Z,73.88
2018-03-28T11:47:50.433Z,73.69
2018-03-28T11:48:50.396Z,73.03
2018-03-28T11:49:50.669Z,72.97
2018-03-28T11:50:50.688Z,71.38
2018-03-28T11:51:50.456Z,71.06
2018-03-28T11:52:50.738Z,71.15
2018-03-28T11:53:50.754Z,71.92
2018-03-28T11:54:50.790Z,71.06
2018-03-28T11:55:50.801Z,71.34
2018-03-28T11:56:50.814Z,71.15
2018-03-28T11:57:50.845Z,72.58
2018-03-28T11:58:50.857Z,72.55
2018-03-28T11:59:50.623Z,72.45
2018-03-28T12:00:50.902Z,72.39
2018-03-28T12:01:50.664Z,72.36
2018-03-28T12:02:50.990Z,73.03
2018-03-28T12:03:50.959Z,73.69
2018-03-28T12:04:50.972Z,74.37
2018-03-28T12:05:50.994Z,74.84
2018-03-28T12:06:51.014Z,74.99
2018-03-28T12:07:50.784Z,74.99
2018-03-28T12:08:51.060Z,75.85
2018-03-28T12:09:51.077Z,76.33
2018-03-28T12:10:50.848Z,76.33
2018-03-28T12:11:50.868Z,76.23
2018-03-28T12:12:50.886Z,76.42
2018-03-28T12:13:51.162Z,76.42
2018-03-28T12:14:51.180Z,76.52
2018-03-28T12:15:51.206Z,76.81
2018-03-28T12:16:51.229Z,76.62
2018-03-28T12:17:51.036Z,76.9
2018-03-28T12:18:51.278Z,76.71
2018-03-28T12:19:51.275Z,76.9
2018-03-28T12:20:51.043Z,76.9
2018-03-28T12:21:51.320Z,76.23
2018-03-28T12:22:51.335Z,76.42
2018-03-28T12:23:51.357Z,76.42
2018-03-28T12:24:51.376Z,76.04
2018-03-28T12:25:51.405Z,75.95
2018-03-28T12:26:51.496Z,75.98
2018-03-28T12:27:51.185Z,76.52
2018-03-28T12:28:51.203Z,77
2018-03-28T12:29:51.473Z,77.19
2018-03-28T12:30:51.236Z,76.9
2018-03-28T12:31:51.516Z,76.08
2018-03-28T12:32:51.583Z,75.32
2018-03-28T12:33:51.561Z,74.65
2018-03-28T12:34:51.315Z,75.22
2018-03-28T12:35:51.582Z,75.32
2018-03-28T12:36:51.717Z,75.22
2018-03-28T12:37:51.372Z,74.65
2018-03-28T12:38:51.646Z,75.22
2018-03-28T12:39:51.411Z,75.22
2018-03-28T12:40:51.691Z,75.03
2018-03-28T12:41:51.459Z,74.69
2018-03-28T12:42:51.730Z,75.26
2018-03-28T12:43:51.757Z,74.84
2018-03-28T12:44:51.519Z,75.07
2018-03-28T12:45:51.795Z,75.6
2018-03-28T12:46:51.819Z,75.26
2018-03-28T12:47:51.885Z,74.49
2018-03-28T12:48:51.864Z,75.26
2018-03-28T12:49:51.674Z,75.6
2018-03-28T12:50:51.926Z,76.08
2018-03-28T12:51:51.917Z,77.09
2018-03-28T12:52:51.681Z,77.38
2018-03-28T12:53:51.712Z,77.19
2018-03-28T12:54:51.986Z,76.65
2018-03-28T12:55:51.997Z,76.56